createdAt,value
2022-08-01T00:01:24.288Z,99874.25
2022-08-01T00:03:51.907Z,99874.28
2022-08-01T00:06:19.911Z,99878.44
2022-08-01T00:08:50.048Z,99879.25
2022-08-01T00:11:17.877Z,99874.06
2022-08-01T00:13:45.510Z,99873.53
2022-08-01T00:16:13.550Z,99876.56
2022-08-01T00:18:41.160Z,99874.09
2022-08-01T00:21:08.882Z,99871.66
2022-08-01T00:23:37.863Z,99866.78
2022-08-01T00:26:05.484Z,99866.78
2022-08-01T00:28:35.712Z,99870.31
2022-08-01T00:31:03.326Z,99861.59
2022-08-01T00:33:30.909Z,99863.75
2022-08-01T00:35:58.553Z,99860.50
2022-08-01T00:38:26.094Z,99849.03
2022-08-01T00:40:54.458Z,99849.84
2022-08-01T00:43:23.365Z,99848.75
2022-08-01T00:45:51.053Z,99847.94
2022-08-01T00:48:18.871Z,99846.28
2022-08-01T00:50:49.173Z,99845.75
2022-08-01T00:53:18.865Z,99843.03
2022-08-01T00:55:47.155Z,99852.03
2022-08-01T00:58:14.858Z,99851.75
2022-08-01T01:00:52.138Z,99852.03
2022-08-01T01:03:23.867Z,99851.78
2022-08-01T01:06:13.205Z,99855.84
2022-08-01T01:08:48.562Z,99857.78
2022-08-01T01:11:23.744Z,99852.06
2022-08-01T01:13:59.307Z,99845.78
2022-08-01T01:16:27.770Z,99850.72
2022-08-01T01:18:58.156Z,99857.00
2022-08-01T01:22:03.186Z,99854.00
2022-08-01T01:24:43.801Z,99861.09
2022-08-01T01:27:38.327Z,99861.63
2022-08-01T01:30:08.090Z,99860.84
2022-08-01T01:32:42.010Z,99858.63
2022-08-01T01:35:30.724Z,99854.28
2022-08-01T01:38:10.867Z,99848.81
2022-08-01T01:40:40.201Z,99851.84
2022-08-01T01:43:11.680Z,99852.94
2022-08-01T01:45:40.834Z,99844.19
2022-08-01T01:48:09.758Z,99849.13
2022-08-01T01:50:38.375Z,99841.75
2022-08-01T01:53:07.874Z,99837.09
2022-08-01T01:55:49.126Z,99843.41
2022-08-01T01:58:18.188Z,99836.56
2022-08-01T02:00:50.521Z,99834.37
2022-08-01T02:03:20.735Z,99831.09
2022-08-01T02:05:49.572Z,99831.63
2022-08-01T02:08:19.314Z,99821.25
2022-08-01T02:11:09.081Z,99822.34
2022-08-01T02:13:39.434Z,99827.22
2022-08-01T02:16:07.826Z,99825.84
2022-08-01T02:18:35.405Z,99826.63
2022-08-01T02:21:10.290Z,99823.59
2022-08-01T02:23:39.106Z,99817.56
2022-08-01T02:26:11.899Z,99819.22
2022-08-01T02:29:14.490Z,99804.75
2022-08-01T02:31:45.997Z,99815.31
2022-08-01T02:34:17.177Z,99816.13
2022-08-01T02:36:47.837Z,99818.84
2022-08-01T02:39:18.093Z,99816.66
2022-08-01T02:41:52.109Z,99823.22
2022-08-01T02:44:29.023Z,99811.81
2022-08-01T02:47:04.125Z,99822.16
2022-08-01T02:49:35.440Z,99821.66
2022-08-01T02:52:10.314Z,99819.75
2022-08-01T02:54:39.331Z,99814.84
2022-08-01T02:57:09.935Z,99816.50
2022-08-01T02:59:45.886Z,99812.97
2022-08-01T03:02:16.661Z,99814.62
2022-08-01T03:04:48.027Z,99813.56
2022-08-01T03:07:19.129Z,99813.03
2022-08-01T03:09:48.973Z,99804.31
2022-08-01T03:12:20.847Z,99810.59
2022-08-01T03:14:53.809Z,99818.25
2022-08-01T03:17:25.958Z,99812.00
2022-08-01T03:19:57.981Z,99808.19
2022-08-01T03:22:28.860Z,99808.72
2022-08-01T03:24:59.634Z,99801.94
2022-08-01T03:27:27.516Z,99802.22
2022-08-01T03:29:58.287Z,99802.22
2022-08-01T03:32:30.351Z,99802.22
2022-08-01T03:34:58.525Z,99806.31
2022-08-01T03:37:26.262Z,99806.88
2022-08-01T03:40:11.363Z,99803.84
2022-08-01T03:42:47.473Z,99803.84
2022-08-01T03:45:28.366Z,99797.31
2022-08-01T03:48:10.939Z,99800.31
2022-08-01T03:50:43.435Z,99803.81
2022-08-01T03:53:13.198Z,99806.81
2022-08-01T03:55:43.142Z,99800.53
2022-08-01T03:58:12.467Z,99808.41
2022-08-01T04:00:41.609Z,99801.56
2022-08-01T04:03:14.709Z,99813.00
2022-08-01T04:05:45.868Z,99819.22
2022-08-01T04:08:13.483Z,99822.19
2022-08-01T04:10:41.215Z,99824.91
2022-08-01T04:13:08.842Z,99832.50
2022-08-01T04:15:36.767Z,99831.94
2022-08-01T04:18:04.624Z,99833.00
2022-08-01T04:20:32.254Z,99834.06
2022-08-01T04:22:59.816Z,99833.69
2022-08-01T04:25:31.816Z,99834.19
2022-08-01T04:28:04.946Z,99829.44
2022-08-01T04:30:36.099Z,99833.75
2022-08-01T04:33:07.602Z,99842.41
2022-08-01T04:36:02.777Z,99842.88
2022-08-01T04:38:30.787Z,99841.37
2022-08-01T04:41:09.090Z,99836.59
2022-08-01T04:43:38.467Z,99835.91
2022-08-01T04:46:08.655Z,99832.22
2022-08-01T04:48:40.926Z,99827.69
2022-08-01T04:51:19.100Z,99835.94
2022-08-01T04:53:49.490Z,99832.97
2022-08-01T04:56:17.207Z,99831.88
2022-08-01T04:58:45.786Z,99828.56
2022-08-01T05:01:14.340Z,99839.16
2022-08-01T05:03:41.955Z,99839.69
2022-08-01T05:06:09.594Z,99839.56
2022-08-01T05:08:37.939Z,99841.06
2022-08-01T05:11:06.265Z,99837.31
2022-08-01T05:13:33.845Z,99837.91
2022-08-01T05:16:04.529Z,99835.78
2022-08-01T05:18:34.254Z,99835.50
2022-08-01T05:21:02.963Z,99843.16
2022-08-01T05:23:42.148Z,99838.78
2022-08-01T05:26:15.057Z,99846.75
2022-08-01T05:28:43.978Z,99835.69
2022-08-01T05:31:11.949Z,99844.66
2022-08-01T05:33:39.683Z,99839.66
2022-08-01T05:36:07.563Z,99844.47
2022-08-01T05:38:35.120Z,99847.69
2022-08-01T05:41:02.799Z,99846.22
2022-08-01T05:43:30.421Z,99839.41
2022-08-01T05:45:59.291Z,99845.47
2022-08-01T05:48:26.849Z,99845.28
2022-08-01T05:50:58.630Z,99848.41
2022-08-01T05:53:26.656Z,99845.03
2022-08-01T05:55:54.319Z,99844.09
2022-08-01T05:58:21.893Z,99841.56
2022-08-01T06:00:49.715Z,99846.88
2022-08-01T06:03:17.336Z,99841.22
2022-08-01T06:05:44.904Z,99846.84
2022-08-01T06:08:12.763Z,99845.53
2022-08-01T06:10:42.718Z,99845.88
2022-08-01T06:13:10.425Z,99844.72
2022-08-01T06:15:38.012Z,99847.50
2022-08-01T06:18:06.430Z,99849.78
2022-08-01T06:20:34.105Z,99855.13
2022-08-01T06:23:11.310Z,99848.72
2022-08-01T06:25:49.564Z,99848.16
2022-08-01T06:28:17.156Z,99852.91
2022-08-01T06:30:44.718Z,99851.63
2022-08-01T06:33:15.670Z,99855.09
2022-08-01T06:35:43.259Z,99854.69
2022-08-01T06:38:10.844Z,99855.91
2022-08-01T06:40:39.305Z,99856.66
2022-08-01T06:43:06.925Z,99860.66
2022-08-01T06:45:34.476Z,99845.09
2022-08-01T06:48:01.998Z,99851.53
2022-08-01T06:50:29.591Z,99862.00
2022-08-01T06:52:57.243Z,99860.50
2022-08-01T06:55:27.233Z,99848.84
2022-08-01T06:57:56.458Z,99857.34
2022-08-01T07:00:25.618Z,99853.78
2022-08-01T07:02:54.430Z,99850.50
2022-08-01T07:05:24.242Z,99853.41
2022-08-01T07:07:54.472Z,99852.44
2022-08-01T07:10:22.159Z,99852.69
2022-08-01T07:12:52.400Z,99851.66
2022-08-01T07:15:27.290Z,99847.53
2022-08-01T07:18:02.424Z,99850.66
2022-08-01T07:20:32.043Z,99844.34
2022-08-01T07:23:03.877Z,99848.09
2022-08-01T07:25:31.439Z,99851.22
2022-08-01T07:27:59.040Z,99847.97
2022-08-01T07:30:27.178Z,99854.63
2022-08-01T07:32:54.755Z,99848.97
2022-08-01T07:35:22.431Z,99845.12
2022-08-01T07:37:50.000Z,99859.69
2022-08-01T07:40:19.881Z,99854.59
2022-08-01T07:42:48.901Z,99859.44
2022-08-01T07:45:16.820Z,99865.97
2022-08-01T07:47:44.682Z,99861.91
2022-08-01T07:50:13.606Z,99859.62
2022-08-01T07:52:42.593Z,99854.81
2022-08-01T07:55:11.751Z,99850.41
2022-08-01T07:57:46.618Z,99846.09
2022-08-01T08:00:14.736Z,99845.50
2022-08-01T08:02:42.467Z,99841.94
2022-08-01T08:05:10.336Z,99839.94
2022-08-01T08:07:39.631Z,99847.16
2022-08-01T08:10:08.059Z,99852.97
2022-08-01T08:12:38.480Z,99852.91
2022-08-01T08:15:10.012Z,99857.41
2022-08-01T08:17:37.694Z,99858.81
2022-08-01T08:20:09.813Z,99861.50
2022-08-01T08:22:37.968Z,99863.25
2022-08-01T08:25:07.733Z,99858.06
2022-08-01T08:27:38.174Z,99869.47
2022-08-01T08:30:08.745Z,99861.06
2022-08-01T08:32:37.458Z,99865.78
2022-08-01T08:35:05.847Z,99865.41
2022-08-01T08:37:42.782Z,99877.44
2022-08-01T08:40:17.938Z,99879.47
2022-08-01T08:42:47.476Z,99879.16
2022-08-01T08:45:15.289Z,99881.00
2022-08-01T08:47:44.411Z,99884.72
2022-08-01T08:50:12.647Z,99889.00
2022-08-01T08:52:41.104Z,99886.06
2022-08-01T08:55:10.700Z,99886.47
2022-08-01T08:57:41.898Z,99889.56
2022-08-01T09:00:10.673Z,99894.78
2022-08-01T09:02:38.310Z,99894.63
2022-08-01T09:05:06.490Z,99893.09
2022-08-01T09:07:34.087Z,99889.94
2022-08-01T09:10:01.789Z,99885.00
2022-08-01T09:12:32.049Z,99886.56
2022-08-01T09:15:00.102Z,99884.09
2022-08-01T09:17:27.843Z,99884.38
2022-08-01T09:19:59.064Z,99883.25
2022-08-01T09:22:27.358Z,99884.38
2022-08-01T09:25:13.094Z,99874.06
2022-08-01T09:27:44.138Z,99876.59
2022-08-01T09:30:23.817Z,99877.38
2022-08-01T09:33:06.178Z,99882.38
2022-08-01T09:35:42.999Z,99880.66
2022-08-01T09:38:16.870Z,99880.06
2022-08-01T09:40:53.286Z,99884.28
2022-08-01T09:43:22.514Z,99875.91
2022-08-01T09:45:52.944Z,99878.19
2022-08-01T09:48:28.521Z,99882.03
2022-08-01T09:51:03.838Z,99878.69
2022-08-01T09:53:51.083Z,99878.81
2022-08-01T09:56:20.015Z,99882.66
2022-08-01T09:59:00.356Z,99879.94
2022-08-01T10:01:49.765Z,99884.69
2022-08-01T10:04:17.499Z,99880.44
2022-08-01T10:06:50.859Z,99881.69
2022-08-01T10:09:39.796Z,99875.66
2022-08-01T10:12:16.253Z,99882.72
2022-08-01T10:14:46.793Z,99879.78
2022-08-01T10:17:20.130Z,99884.13
2022-08-01T10:19:50.562Z,99885.34
2022-08-01T10:22:20.880Z,99881.25
2022-08-01T10:24:50.202Z,99877.75
2022-08-01T10:27:24.336Z,99880.47
2022-08-01T10:30:19.592Z,99876.00
2022-08-01T10:32:50.819Z,99881.59
2022-08-01T10:35:24.080Z,99879.81
2022-08-01T10:38:13.451Z,99868.88
2022-08-01T10:40:43.955Z,99871.59
2022-08-01T10:43:12.578Z,99877.25
2022-08-01T10:45:44.241Z,99878.66
2022-08-01T10:48:20.576Z,99868.16
2022-08-01T10:50:51.611Z,99864.66
2022-08-01T10:53:24.157Z,99869.19
2022-08-01T10:56:01.491Z,99861.44
2022-08-01T10:58:42.546Z,99858.00
2022-08-01T11:01:19.594Z,99853.59
2022-08-01T11:04:15.946Z,99852.69
2022-08-01T11:07:10.200Z,99850.22
2022-08-01T11:10:15.547Z,99851.09
2022-08-01T11:12:45.310Z,99852.00
2022-08-01T11:15:12.817Z,99850.47
2022-08-01T11:17:49.617Z,99853.59
2022-08-01T11:20:34.663Z,99849.22
2022-08-01T11:23:11.726Z,99842.00
2022-08-01T11:26:03.155Z,99836.00
2022-08-01T11:28:36.917Z,99843.09
2022-08-01T11:31:13.883Z,99836.56
2022-08-01T11:33:41.698Z,99839.09
2022-08-01T11:36:12.667Z,99838.16
2022-08-01T11:38:42.540Z,99835.28
2022-08-01T11:41:23.562Z,99835.75
2022-08-01T11:44:14.450Z,99835.59
2022-08-01T11:47:11.609Z,99830.38
2022-08-01T11:49:49.272Z,99833.84
2022-08-01T11:52:30.969Z,99832.44
2022-08-01T11:55:04.810Z,99832.94
2022-08-01T11:57:38.902Z,99836.75
2022-08-01T12:00:20.721Z,99833.03
2022-08-01T12:02:58.953Z,99827.84
2022-08-01T12:05:28.760Z,99825.97
2022-08-01T12:07:59.599Z,99831.69
2022-08-01T12:10:33.247Z,99833.34
2022-08-01T12:13:07.094Z,99833.28
2022-08-01T12:15:42.501Z,99828.47
2022-08-01T12:18:12.415Z,99831.56
2022-08-01T12:20:56.487Z,99830.31
2022-08-01T12:23:33.377Z,99827.91
2022-08-01T12:26:01.934Z,99827.09
2022-08-01T12:28:32.267Z,99820.75
2022-08-01T12:31:04.978Z,99831.56
2022-08-01T12:33:35.068Z,99827.47
2022-08-01T12:36:07.739Z,99826.16
2022-08-01T12:38:44.714Z,99833.41
2022-08-01T12:41:17.743Z,99825.53
2022-08-01T12:43:46.800Z,99818.75
2022-08-01T12:46:27.083Z,99817.50
2022-08-01T12:48:54.772Z,99814.53
2022-08-01T12:51:22.664Z,99824.06
2022-08-01T12:53:50.276Z,99811.63
2022-08-01T12:56:18.724Z,99815.88
2022-08-01T12:58:46.379Z,99815.75
2022-08-01T13:01:14.377Z,99816.75
2022-08-01T13:03:59.997Z,99818.81
2022-08-01T13:06:31.426Z,99806.12
2022-08-01T13:09:13.020Z,99803.81
2022-08-01T13:11:53.977Z,99802.63
2022-08-01T13:14:30.057Z,99803.84
2022-08-01T13:16:57.761Z,99795.78
2022-08-01T13:19:44.512Z,99797.41
2022-08-01T13:22:12.179Z,99800.91
2022-08-01T13:24:39.861Z,99785.22
2022-08-01T13:27:07.607Z,99785.59
2022-08-01T13:29:38.758Z,99785.19
2022-08-01T13:32:29.850Z,99784.38
2022-08-01T13:35:10.746Z,99776.38
2022-08-01T13:37:39.563Z,99779.41
2022-08-01T13:40:09.159Z,99786.22
2022-08-01T13:42:37.379Z,99782.47
2022-08-01T13:45:14.592Z,99783.22
2022-08-01T13:48:11.915Z,99781.28
2022-08-01T13:50:33.964Z,99776.75
2022-08-01T13:53:01.647Z,99774.13
2022-08-01T13:55:34.713Z,99780.13
2022-08-01T13:58:05.030Z,99770.88
2022-08-01T14:00:32.826Z,99780.03
2022-08-01T14:03:00.390Z,99779.25
2022-08-01T14:05:28.157Z,99777.94
2022-08-01T14:07:56.494Z,99779.06
2022-08-01T14:10:26.792Z,99783.84
2022-08-01T14:12:56.846Z,99778.22
2022-08-01T14:15:37.311Z,99776.53
2022-08-01T14:18:06.958Z,99780.09
2022-08-01T14:20:35.941Z,99772.00
2022-08-01T14:23:03.710Z,99788.25
2022-08-01T14:26:03.014Z,99787.19
2022-08-01T14:28:24.683Z,99787.63
2022-08-01T14:30:52.248Z,99798.88
2022-08-01T14:33:20.004Z,99781.41
2022-08-01T14:36:06.167Z,99794.69
2022-08-01T14:38:37.879Z,99787.09
2022-08-01T14:41:05.467Z,99787.78
2022-08-01T14:43:34.179Z,99786.25
2022-08-01T14:46:04.468Z,99778.16
2022-08-01T14:48:35.411Z,99782.13
2022-08-01T14:51:05.100Z,99766.50
2022-08-01T14:53:35.755Z,99788.34
2022-08-01T14:56:07.708Z,99781.63
2022-08-01T14:58:35.463Z,99778.69
2022-08-01T15:01:06.873Z,99777.38
2022-08-01T15:03:34.806Z,99778.13
2022-08-01T15:06:03.332Z,99773.78
2022-08-01T15:08:33.378Z,99777.72
2022-08-01T15:11:02.054Z,99778.97
2022-08-01T15:13:29.670Z,99778.91
2022-08-01T15:15:59.828Z,99774.88
2022-08-01T15:18:29.503Z,99775.59
2022-08-01T15:20:58.289Z,99771.16
2022-08-01T15:23:29.867Z,99783.31
2022-08-01T15:25:57.460Z,99779.31
2022-08-01T15:28:25.646Z,99783.22
2022-08-01T15:30:53.193Z,99785.03
2022-08-01T15:33:22.569Z,99782.63
2022-08-01T15:35:50.222Z,99788.84
2022-08-01T15:38:22.661Z,99786.81
2022-08-01T15:40:50.293Z,99777.97
2022-08-01T15:43:18.139Z,99787.84
2022-08-01T15:45:48.044Z,99770.69
2022-08-01T15:48:18.061Z,99772.22
2022-08-01T15:50:45.889Z,99779.37
2022-08-01T15:53:13.472Z,99784.50
2022-08-01T15:55:41.441Z,99787.31
2022-08-01T15:58:11.618Z,99781.66
2022-08-01T16:00:40.259Z,99779.25
2022-08-01T16:03:10.215Z,99780.44
2022-08-01T16:05:44.340Z,99776.72
2022-08-01T16:08:15.435Z,99778.28
2022-08-01T16:10:43.672Z,99774.25
2022-08-01T16:13:13.542Z,99777.34
2022-08-01T16:15:41.758Z,99776.91
2022-08-01T16:18:12.974Z,99778.84
2022-08-01T16:20:45.489Z,99785.16
2022-08-01T16:23:16.872Z,99787.09
2022-08-01T16:25:45.270Z,99779.44
2022-08-01T16:28:14.087Z,99781.06
2022-08-01T16:30:48.596Z,99784.88
2022-08-01T16:33:38.818Z,99776.03
2022-08-01T16:36:16.660Z,99775.97
2022-08-01T16:38:45.643Z,99775.53
2022-08-01T16:41:20.078Z,99783.38
2022-08-01T16:43:54.329Z,99785.28
2022-08-01T16:46:25.110Z,99772.34
2022-08-01T16:48:55.432Z,99775.81
2022-08-01T16:51:23.105Z,99774.50
2022-08-01T16:53:50.924Z,99772.41
2022-08-01T16:56:18.638Z,99779.47
2022-08-01T16:58:46.695Z,99778.53
2022-08-01T17:02:01.031Z,99760.69
2022-08-01T17:04:09.297Z,99787.81
2022-08-01T17:06:39.233Z,99782.44
2022-08-01T17:09:06.928Z,99786.69
2022-08-01T17:11:34.516Z,99780.59
2022-08-01T17:14:04.534Z,99783.53
2022-08-01T17:16:32.385Z,99788.31
2022-08-01T17:18:59.968Z,99785.00
2022-08-01T17:21:30.670Z,99791.56
2022-08-01T17:23:58.360Z,99784.56
2022-08-01T17:26:26.552Z,99794.28
2022-08-01T17:28:54.127Z,99796.44
2022-08-01T17:31:21.875Z,99794.31
2022-08-01T17:33:54.544Z,99802.00
2022-08-01T17:36:22.782Z,99798.47
2022-08-01T17:38:50.453Z,99805.09
2022-08-01T17:41:20.028Z,99810.09
2022-08-01T17:43:48.097Z,99802.41
2022-08-01T17:46:15.811Z,99802.47
2022-08-01T17:48:44.407Z,99805.41
2022-08-01T17:51:12.214Z,99804.41
2022-08-01T17:53:53.155Z,99812.09
2022-08-01T17:56:25.551Z,99813.44
2022-08-01T17:58:53.293Z,99809.22
2022-08-01T18:01:21.692Z,99803.47
2022-08-01T18:03:54.405Z,99813.88
2022-08-01T18:06:23.180Z,99806.59
2022-08-01T18:08:55.329Z,99805.34
2022-08-01T18:11:27.331Z,99804.44
2022-08-01T18:13:59.486Z,99803.53
2022-08-01T18:16:27.858Z,99806.66
2022-08-01T18:18:56.066Z,99808.63
2022-08-01T18:21:23.803Z,99806.66
2022-08-01T18:23:53.433Z,99816.84
2022-08-01T18:26:22.692Z,99811.97
2022-08-01T18:28:50.348Z,99815.78
2022-08-01T18:31:20.359Z,99827.81
2022-08-01T18:33:48.453Z,99824.56
2022-08-01T18:36:28.328Z,99832.78
2022-08-01T18:39:04.439Z,99825.06
2022-08-01T18:41:33.381Z,99827.84
2022-08-01T18:44:05.314Z,99829.34
2022-08-01T18:46:38.668Z,99841.25
2022-08-01T18:49:12.009Z,99846.31
2022-08-01T18:51:45.096Z,99840.44
2022-08-01T18:54:13.691Z,99855.22
2022-08-01T18:56:42.454Z,99854.53
2022-08-01T18:59:10.682Z,99856.59
2022-08-01T19:01:39.692Z,99854.06
2022-08-01T19:04:08.075Z,99859.88
2022-08-01T19:06:38.813Z,99857.28
2022-08-01T19:09:07.966Z,99851.84
2022-08-01T19:11:39.796Z,99856.34
2022-08-01T19:14:09.946Z,99868.50
2022-08-01T19:19:58.781Z,99870.22
2022-08-01T19:22:45.711Z,99876.47
2022-08-01T19:25:55.605Z,99876.22
2022-08-01T19:28:58.773Z,99875.66
2022-08-01T19:32:07.152Z,99882.47
2022-08-01T19:35:11.822Z,99890.56
2022-08-01T19:40:49.316Z,99882.59
2022-08-01T19:53:19.780Z,99899.47
2022-08-01T19:55:59.656Z,99892.72
2022-08-01T19:58:28.927Z,99887.59
2022-08-01T20:00:56.650Z,99893.56
2022-08-01T20:03:24.498Z,99891.56
2022-08-01T20:05:52.650Z,99893.69
2022-08-01T20:08:23.323Z,99887.22
2022-08-01T20:10:51.889Z,99882.44
2022-08-01T20:13:20.304Z,99882.16
2022-08-01T20:15:48.354Z,99882.88
2022-08-01T20:18:18.444Z,99876.12
2022-08-01T20:20:55.686Z,99888.97
2022-08-01T20:23:27.202Z,99884.31
2022-08-01T20:25:59.443Z,99884.72
2022-08-01T20:28:30.219Z,99882.28
2022-08-01T20:31:05.325Z,99880.84
2022-08-01T20:33:35.591Z,99877.22
2022-08-01T20:36:05.113Z,99887.50
2022-08-01T20:38:42.488Z,99889.59
2022-08-01T20:41:13.372Z,99895.13
2022-08-01T20:43:41.210Z,99879.31
2022-08-01T20:46:08.761Z,99892.81
2022-08-01T20:48:39.806Z,99892.63
2022-08-01T20:51:17.198Z,99894.72
2022-08-01T20:53:49.092Z,99895.19
2022-08-01T20:56:23.358Z,99893.87
2022-08-01T20:59:06.460Z,99898.25
2022-08-01T21:01:45.342Z,99908.78
2022-08-01T21:04:31.842Z,99899.47
2022-08-01T21:07:27.357Z,99906.97
2022-08-01T21:10:16.365Z,99906.97
2022-08-01T21:13:00.505Z,99904.06
2022-08-01T21:16:12.542Z,99907.84
2022-08-01T21:18:40.961Z,99904.44
2022-08-01T21:21:17.455Z,99903.50
2022-08-01T21:23:57.597Z,99906.12
2022-08-01T21:26:25.817Z,99908.06
2022-08-01T21:28:56.519Z,99904.38
2022-08-01T21:31:26.280Z,99906.31
2022-08-01T21:34:08.224Z,99907.66
2022-08-01T21:36:37.006Z,99905.72
2022-08-01T21:39:07.022Z,99911.78
2022-08-01T21:42:05.054Z,99909.06
2022-08-01T21:44:29.737Z,99908.78
2022-08-01T21:47:01.677Z,99909.91
2022-08-01T21:49:29.524Z,99911.91
2022-08-01T21:52:21.854Z,99906.09
2022-08-01T21:54:55.007Z,99918.44
2022-08-01T21:57:32.108Z,99911.00
2022-08-01T22:00:25.122Z,99921.72
2022-08-01T22:03:14.977Z,99919.63
2022-08-01T22:05:51.159Z,99922.38
2022-08-01T22:08:57.642Z,99922.56
2022-08-01T22:11:29.714Z,99920.78
2022-08-01T22:14:03.035Z,99929.56
2022-08-01T22:16:34.700Z,99925.00
2022-08-01T22:19:05.648Z,99920.47
2022-08-01T22:21:34.109Z,99928.59
2022-08-01T22:24:03.619Z,99916.72
2022-08-01T22:26:33.228Z,99920.13
2022-08-01T22:29:03.651Z,99917.53
2022-08-01T22:31:38.060Z,99917.72
2022-08-01T22:34:05.874Z,99923.72
2022-08-01T22:36:33.449Z,99929.91
2022-08-01T22:39:01.032Z,99933.94
2022-08-01T22:42:01.410Z,99927.59
2022-08-01T22:44:30.349Z,99931.16
2022-08-01T22:47:21.744Z,99934.38
2022-08-01T22:50:06.529Z,99939.59
2022-08-01T22:52:44.671Z,99939.69
2022-08-01T22:55:12.875Z,99934.13
2022-08-01T22:57:59.296Z,99934.06
2022-08-01T23:00:32.630Z,99936.28
2022-08-01T23:03:07.762Z,99933.34
2022-08-01T23:05:42.333Z,99937.53
2022-08-01T23:08:21.966Z,99932.50
2022-08-01T23:10:49.694Z,99932.13
2022-08-01T23:13:20.963Z,99932.25
2022-08-01T23:15:52.110Z,99932.72
2022-08-01T23:18:22.193Z,99931.09
2022-08-01T23:20:52.700Z,99935.28
2022-08-01T23:23:31.148Z,99933.66
2022-08-01T23:26:00.683Z,99938.69
2022-08-01T23:28:29.706Z,99937.06
2022-08-01T23:30:58.621Z,99931.87
2022-08-01T23:33:28.695Z,99929.44
2022-08-01T23:35:56.484Z,99925.66
2022-08-01T23:38:24.099Z,99931.78
2022-08-01T23:40:54.065Z,99932.59
2022-08-01T23:43:21.694Z,99931.78
2022-08-01T23:46:04.744Z,99935.53
2022-08-01T23:48:34.269Z,99932.69
2022-08-01T23:51:04.581Z,99926.03
2022-08-01T23:53:33.666Z,99930.41
2022-08-01T23:56:06.588Z,99923.63
2022-08-01T23:58:36.603Z,99926.75
